createdAt,value
2019-06-20T00:01:53.703Z,9.40
2019-06-20T00:04:20.461Z,9.48
2019-06-20T00:06:47.358Z,9.53
2019-06-20T00:09:14.274Z,9.55
2019-06-20T00:11:41.102Z,8.38
2019-06-20T00:14:07.906Z,7.60
2019-06-20T00:16:34.631Z,8.10
2019-06-20T00:19:01.431Z,8.00
2019-06-20T00:21:28.546Z,7.78
2019-06-20T00:23:55.317Z,8.00
2019-06-20T00:26:22.059Z,8.43
2019-06-20T00:28:48.800Z,8.70
2019-06-20T00:31:15.546Z,8.03
2019-06-20T00:33:42.280Z,8.45
2019-06-20T00:36:09.130Z,7.17
2019-06-20T00:38:35.931Z,7.87
2019-06-20T00:41:02.867Z,7.08
2019-06-20T00:43:29.570Z,7.47
2019-06-20T00:45:56.386Z,7.97
2019-06-20T00:48:23.300Z,7.10
2019-06-20T00:50:50.030Z,7.35
2019-06-20T00:53:16.735Z,7.00
2019-06-20T00:55:43.535Z,7.42
2019-06-20T00:58:10.410Z,7.97
2019-06-20T01:00:37.319Z,7.35
2019-06-20T01:03:04.348Z,7.70
2019-06-20T01:05:31.059Z,7.90
2019-06-20T01:07:57.784Z,7.40
2019-06-20T01:10:24.502Z,6.80
2019-06-20T01:12:51.322Z,6.85
2019-06-20T01:15:18.141Z,7.17
2019-06-20T01:20:20.797Z,7.92
2019-06-20T01:22:47.610Z,8.35
2019-06-20T01:25:16.753Z,7.60
2019-06-20T01:27:43.593Z,7.47
2019-06-20T01:30:11.731Z,6.97
2019-06-20T01:32:38.535Z,6.80
2019-06-20T01:35:08.731Z,6.92
2019-06-20T01:37:35.849Z,7.08
2019-06-20T01:40:04.769Z,7.05
2019-06-20T01:42:31.574Z,7.15
2019-06-20T01:44:58.451Z,7.20
2019-06-20T01:47:25.226Z,7.70
2019-06-20T01:49:51.961Z,7.05
2019-06-20T01:52:18.845Z,6.67
2019-06-20T01:54:45.591Z,6.53
2019-06-20T01:57:12.390Z,6.58
2019-06-20T01:59:39.166Z,6.37
2019-06-20T02:02:06.091Z,6.58
2019-06-20T02:04:32.931Z,7.28
2019-06-20T02:06:59.803Z,7.62
2019-06-20T02:09:26.810Z,6.50
2019-06-20T02:11:53.565Z,6.90
2019-06-20T02:14:20.367Z,6.58
2019-06-20T02:16:47.385Z,6.30
2019-06-20T02:19:14.399Z,6.90
2019-06-20T02:21:41.238Z,7.08
2019-06-20T02:24:08.088Z,7.53
2019-06-20T02:26:34.888Z,6.80
2019-06-20T02:29:01.953Z,7.30
2019-06-20T02:31:28.814Z,6.95
2019-06-20T02:33:55.643Z,6.60
2019-06-20T02:36:22.556Z,6.25
2019-06-20T02:38:49.376Z,6.50
2019-06-20T02:41:16.292Z,6.08
2019-06-20T02:43:43.197Z,6.87
2019-06-20T02:46:10.319Z,7.05
2019-06-20T02:48:37.124Z,7.20
2019-06-20T02:51:04.147Z,6.55
2019-06-20T02:53:30.958Z,6.95
2019-06-20T02:55:57.807Z,7.72
2019-06-20T02:58:24.653Z,6.50
2019-06-20T03:00:56.566Z,6.25
2019-06-20T03:03:25.651Z,6.40
2019-06-20T03:05:52.712Z,6.17
2019-06-20T03:08:19.613Z,6.17
2019-06-20T03:10:46.533Z,7.15
2019-06-20T03:13:13.435Z,6.70
2019-06-20T03:15:40.487Z,6.40
2019-06-20T03:18:07.217Z,6.53
2019-06-20T03:20:34.030Z,5.87
2019-06-20T03:23:00.932Z,6.20
2019-06-20T03:25:28.221Z,6.67
2019-06-20T03:27:54.936Z,6.55
2019-06-20T03:30:22.047Z,6.40
2019-06-20T03:32:49.057Z,6.72
2019-06-20T03:35:15.978Z,6.85
2019-06-20T03:37:42.700Z,7.42
2019-06-20T03:40:10.207Z,6.83
2019-06-20T03:42:37.018Z,6.45
2019-06-20T03:45:05.425Z,6.00
2019-06-20T03:47:32.339Z,6.30
2019-06-20T03:49:59.142Z,6.50
2019-06-20T03:52:25.907Z,6.75
2019-06-20T03:54:52.717Z,6.78
2019-06-20T03:57:19.431Z,7.10
2019-06-20T03:59:46.273Z,6.60
2019-06-20T04:02:13.117Z,7.47
2019-06-20T04:04:40.157Z,7.33
2019-06-20T04:07:07.087Z,6.92
2019-06-20T04:09:33.824Z,6.85
2019-06-20T04:12:00.560Z,7.45
2019-06-20T04:14:27.772Z,7.05
2019-06-20T04:16:54.507Z,7.85
2019-06-20T04:19:21.217Z,8.05
2019-06-20T04:21:47.927Z,8.08
2019-06-20T04:24:14.753Z,8.50
2019-06-20T04:26:41.462Z,7.05
2019-06-20T04:29:08.169Z,7.10
2019-06-20T04:31:34.926Z,7.62
2019-06-20T04:34:01.695Z,7.40
2019-06-20T04:36:28.638Z,6.47
2019-06-20T04:38:55.451Z,7.20
2019-06-20T04:41:22.379Z,6.90
2019-06-20T04:43:49.118Z,6.55
2019-06-20T04:46:23.625Z,7.03
2019-06-20T04:48:50.346Z,6.87
2019-06-20T04:51:17.041Z,5.72
2019-06-20T04:53:43.761Z,6.00
2019-06-20T04:56:10.582Z,6.22
2019-06-20T04:58:37.403Z,6.55
2019-06-20T05:01:04.315Z,6.40
2019-06-20T05:03:31.133Z,6.62
2019-06-20T05:05:57.941Z,7.00
2019-06-20T05:08:24.762Z,7.10
2019-06-20T05:10:51.602Z,6.87
2019-06-20T05:13:18.469Z,6.70
2019-06-20T05:15:52.421Z,6.33
2019-06-20T05:18:14.206Z,6.47
2019-06-20T05:20:41.040Z,6.22
2019-06-20T05:23:07.747Z,6.47
2019-06-20T05:25:34.650Z,6.20
2019-06-20T05:28:01.666Z,6.05
2019-06-20T05:30:28.837Z,5.90
2019-06-20T05:32:55.643Z,5.70
2019-06-20T05:35:22.343Z,5.95
2019-06-20T05:37:49.066Z,5.87
2019-06-20T05:40:16.003Z,5.90
2019-06-20T05:42:42.819Z,6.17
2019-06-20T05:45:10.383Z,5.47
2019-06-20T05:47:37.201Z,5.65
2019-06-20T05:50:07.013Z,5.58
2019-06-20T05:52:33.751Z,5.75
2019-06-20T05:55:00.458Z,5.55
2019-06-20T05:57:27.270Z,6.33
2019-06-20T05:59:54.175Z,6.33
2019-06-20T06:02:20.957Z,6.00
2019-06-20T06:04:47.874Z,5.80
2019-06-20T06:07:14.579Z,5.10
2019-06-20T06:09:41.430Z,5.30
2019-06-20T06:12:08.414Z,5.20
2019-06-20T06:14:35.260Z,5.37
2019-06-20T06:17:02.161Z,5.75
2019-06-20T06:19:28.941Z,5.97
2019-06-20T06:21:55.673Z,5.55
2019-06-20T06:24:22.490Z,6.00
2019-06-20T06:26:49.190Z,5.85
2019-06-20T06:29:16.020Z,5.47
2019-06-20T06:31:42.824Z,5.72
2019-06-20T06:34:09.883Z,5.28
2019-06-20T06:36:36.579Z,4.85
2019-06-20T06:39:07.699Z,6.17
2019-06-20T06:41:34.530Z,5.65
2019-06-20T06:44:01.476Z,5.80
2019-06-20T06:46:42.844Z,6.53
2019-06-20T06:48:56.918Z,7.10
2019-06-20T06:51:23.616Z,7.42
2019-06-20T06:53:50.450Z,6.80
2019-06-20T06:56:17.287Z,6.28
2019-06-20T06:58:43.994Z,6.45
2019-06-20T07:01:10.904Z,6.15
2019-06-20T07:03:37.639Z,6.37
2019-06-20T07:06:04.530Z,6.70
2019-06-20T07:08:31.426Z,6.55
2019-06-20T07:10:58.415Z,6.25
2019-06-20T07:13:25.158Z,6.05
2019-06-20T07:15:51.872Z,6.35
2019-06-20T07:18:18.897Z,5.75
2019-06-20T07:20:45.735Z,5.95
2019-06-20T07:23:12.586Z,6.10
2019-06-20T07:25:39.317Z,5.00
2019-06-20T07:28:06.025Z,5.10
2019-06-20T07:30:32.734Z,4.92
2019-06-20T07:32:59.573Z,5.28
2019-06-20T07:35:26.331Z,4.47
2019-06-20T07:37:53.081Z,4.58
2019-06-20T07:40:20.422Z,4.45
2019-06-20T07:42:47.426Z,3.90
2019-06-20T07:45:15.099Z,4.10
2019-06-20T07:47:41.999Z,4.40
2019-06-20T07:50:09.873Z,4.37
2019-06-20T07:52:36.772Z,4.62
2019-06-20T07:55:08.270Z,4.70
2019-06-20T07:57:34.986Z,4.97
2019-06-20T08:00:09.760Z,5.17
2019-06-20T08:02:36.774Z,4.97
2019-06-20T08:05:06.019Z,4.60
2019-06-20T08:07:32.846Z,4.90
2019-06-20T08:09:59.724Z,4.80
2019-06-20T08:12:26.505Z,5.37
2019-06-20T08:14:53.269Z,4.80
2019-06-20T08:17:34.325Z,4.92
2019-06-20T08:19:48.619Z,5.30
2019-06-20T08:22:15.395Z,5.47
2019-06-20T08:24:42.340Z,4.80
2019-06-20T08:27:09.141Z,5.22
2019-06-20T08:29:35.969Z,4.70
2019-06-20T08:32:02.928Z,4.78
2019-06-20T08:34:29.966Z,4.67
2019-06-20T08:36:57.805Z,4.78
2019-06-20T08:39:29.187Z,5.10
2019-06-20T08:41:55.438Z,4.60
2019-06-20T08:44:22.486Z,5.35
2019-06-20T08:46:49.335Z,5.12
2019-06-20T08:49:16.193Z,5.45
2019-06-20T08:51:42.908Z,5.25
2019-06-20T08:54:09.716Z,5.20
2019-06-20T08:56:36.959Z,5.33
2019-06-20T08:59:04.890Z,5.75
2019-06-20T09:01:31.932Z,5.42
2019-06-20T09:03:58.739Z,5.33
2019-06-20T09:06:26.090Z,5.12
2019-06-20T09:08:53.855Z,4.87
2019-06-20T09:11:21.870Z,5.20
2019-06-20T09:13:48.680Z,5.37
2019-06-20T09:16:24.351Z,5.00
2019-06-20T09:18:44.139Z,5.03
2019-06-20T09:21:11.150Z,4.78
2019-06-20T09:23:37.882Z,4.67
2019-06-20T09:26:04.724Z,4.25
2019-06-20T09:28:31.534Z,4.53
2019-06-20T09:30:59.225Z,4.78
2019-06-20T09:33:26.344Z,4.60
2019-06-20T09:35:53.991Z,4.35
2019-06-20T09:38:23.455Z,4.40
2019-06-20T09:40:51.915Z,4.55
2019-06-20T09:43:27.707Z,4.00
2019-06-20T09:45:48.090Z,4.20
2019-06-20T09:48:14.919Z,3.83
2019-06-20T09:50:41.787Z,3.83
2019-06-20T09:53:08.479Z,3.70
2019-06-20T09:55:35.414Z,3.72
2019-06-20T09:58:02.426Z,3.55
2019-06-20T10:00:29.850Z,3.30
2019-06-20T10:02:57.821Z,3.62
2019-06-20T10:05:25.306Z,3.00
2019-06-20T10:07:52.345Z,3.90
2019-06-20T10:10:27.819Z,3.10
2019-06-20T10:12:55.869Z,3.47
2019-06-20T10:15:27.597Z,3.90
2019-06-20T10:17:54.709Z,4.25
2019-06-20T10:20:22.543Z,4.42
2019-06-20T10:22:49.384Z,3.95
2019-06-20T10:25:16.498Z,4.05
2019-06-20T10:27:44.848Z,4.22
2019-06-20T10:30:14.537Z,4.08
2019-06-20T10:32:41.720Z,3.98
2019-06-20T10:35:09.995Z,4.00
2019-06-20T10:37:36.919Z,4.40
2019-06-20T10:40:07.630Z,4.37
2019-06-20T10:42:34.481Z,4.40
2019-06-20T10:45:01.976Z,4.37
2019-06-20T10:47:35.000Z,4.75
2019-06-20T10:49:57.883Z,5.00
2019-06-20T10:52:24.757Z,4.80
2019-06-20T10:54:51.703Z,5.30
2019-06-20T10:57:18.556Z,4.85
2019-06-20T10:59:46.519Z,5.08
2019-06-20T11:02:13.543Z,4.03
2019-06-20T11:04:41.105Z,4.47
2019-06-20T11:07:09.266Z,4.83
2019-06-20T11:09:36.194Z,4.72
2019-06-20T11:12:03.223Z,4.78
2019-06-20T11:14:29.931Z,4.37
2019-06-20T11:16:57.555Z,4.70
2019-06-20T11:19:24.268Z,5.60
2019-06-20T11:21:50.992Z,5.83
2019-06-20T11:24:17.910Z,5.85
2019-06-20T11:26:46.009Z,5.95
2019-06-20T11:29:12.869Z,6.62
2019-06-20T11:31:44.232Z,6.70
2019-06-20T11:34:08.337Z,6.72
2019-06-20T11:36:36.989Z,6.30
2019-06-20T11:39:06.299Z,6.22
2019-06-20T11:41:33.132Z,6.60
2019-06-20T11:43:59.840Z,8.93
2019-06-20T11:46:26.707Z,7.80
2019-06-20T11:48:53.473Z,6.40
2019-06-20T11:51:20.505Z,5.05
2019-06-20T11:53:47.472Z,4.90
2019-06-20T11:56:14.199Z,4.58
2019-06-20T11:58:40.919Z,4.70
2019-06-20T12:01:07.659Z,4.37
2019-06-20T12:03:34.380Z,4.20
2019-06-20T12:06:01.088Z,3.85
2019-06-20T12:08:27.830Z,4.10
2019-06-20T12:10:54.767Z,5.30
2019-06-20T12:13:21.587Z,6.28
2019-06-20T12:15:49.000Z,6.62
2019-06-20T12:18:16.014Z,5.03
2019-06-20T12:20:42.951Z,4.78
2019-06-20T12:23:10.029Z,4.60
2019-06-20T12:25:39.092Z,4.90
2019-06-20T12:28:06.006Z,5.55
2019-06-20T12:30:32.882Z,6.22
2019-06-20T12:32:59.714Z,6.30
2019-06-20T12:35:26.678Z,6.08
2019-06-20T12:37:53.497Z,6.60
2019-06-20T12:40:20.704Z,5.30
2019-06-20T12:42:47.454Z,4.33
2019-06-20T12:45:14.867Z,3.87
2019-06-20T12:47:42.015Z,4.22
2019-06-20T12:50:09.258Z,3.37
2019-06-20T12:52:37.624Z,3.60
2019-06-20T12:55:05.129Z,4.05
2019-06-20T12:57:32.042Z,3.95
2019-06-20T12:59:58.865Z,4.00
2019-06-20T13:02:25.856Z,4.40
2019-06-20T13:04:52.793Z,4.45
2019-06-20T13:07:19.532Z,4.95
2019-06-20T13:09:46.407Z,4.58
2019-06-20T13:12:13.350Z,5.30
2019-06-20T13:14:40.887Z,5.40
2019-06-20T13:17:07.813Z,5.78
2019-06-20T13:19:34.518Z,5.10
2019-06-20T13:22:01.250Z,5.42
2019-06-20T13:24:27.957Z,5.80
2019-06-20T13:26:54.733Z,5.60
2019-06-20T13:29:21.485Z,5.22
2019-06-20T13:32:01.679Z,5.53
2019-06-20T13:34:16.834Z,5.70
2019-06-20T13:36:44.747Z,6.05
2019-06-20T13:39:11.764Z,6.58
2019-06-20T13:41:41.214Z,6.60
2019-06-20T13:44:08.173Z,6.47
2019-06-20T13:46:35.117Z,5.97
2019-06-20T13:49:02.036Z,6.50
2019-06-20T13:51:28.929Z,6.60
2019-06-20T13:53:55.888Z,6.17
2019-06-20T13:56:23.037Z,5.37
2019-06-20T13:58:51.235Z,5.65
2019-06-20T14:01:18.309Z,6.12
2019-06-20T14:03:45.694Z,6.37
2019-06-20T14:06:13.914Z,6.42
2019-06-20T14:08:42.366Z,6.60
2019-06-20T14:11:09.370Z,6.42
2019-06-20T14:13:36.323Z,6.25
2019-06-20T14:16:03.372Z,7.30
2019-06-20T14:18:30.225Z,6.83
2019-06-20T14:20:57.046Z,6.33
2019-06-20T14:23:23.887Z,6.47
2019-06-20T14:25:51.731Z,6.65
2019-06-20T14:28:18.874Z,6.33
2019-06-20T14:30:46.548Z,6.05
2019-06-20T14:33:13.888Z,6.42
2019-06-20T14:35:43.497Z,6.15
2019-06-20T14:38:09.507Z,6.37
2019-06-20T14:40:36.488Z,6.67
2019-06-20T14:43:03.325Z,6.17
2019-06-20T14:45:30.171Z,6.20
2019-06-20T14:47:57.058Z,6.83
2019-06-20T14:50:23.983Z,6.67
2019-06-20T14:52:52.193Z,6.92
2019-06-20T14:55:19.880Z,6.60
2019-06-20T14:57:48.418Z,6.65
2019-06-20T15:00:16.973Z,6.78
2019-06-20T15:02:45.762Z,6.85
2019-06-20T15:05:17.939Z,6.40
2019-06-20T15:07:46.726Z,5.92
2019-06-20T15:10:14.505Z,6.90
2019-06-20T15:12:41.548Z,6.67
2019-06-20T15:15:08.956Z,6.30
2019-06-20T15:17:35.862Z,6.75
2019-06-20T15:20:06.461Z,6.33
2019-06-20T15:22:33.284Z,6.92
2019-06-20T15:25:00.098Z,6.03
2019-06-20T15:27:26.852Z,6.58
2019-06-20T15:29:54.411Z,6.42
2019-06-20T15:32:22.242Z,6.00
2019-06-20T15:34:49.443Z,6.83
2019-06-20T15:37:16.304Z,7.00
2019-06-20T15:39:43.042Z,6.67
2019-06-20T15:42:09.752Z,6.83
2019-06-20T15:44:36.483Z,6.67
2019-06-20T15:47:03.405Z,6.83
2019-06-20T15:49:30.215Z,7.15
2019-06-20T15:51:59.166Z,7.30
2019-06-20T15:54:26.309Z,7.47
2019-06-20T15:56:53.247Z,6.58
2019-06-20T15:59:20.328Z,6.50
2019-06-20T16:01:47.017Z,7.33
2019-06-20T16:04:13.779Z,7.85
2019-06-20T16:06:40.575Z,7.35
2019-06-20T16:09:09.076Z,7.47
2019-06-20T16:11:36.553Z,7.17
2019-06-20T16:14:03.421Z,6.80
2019-06-20T16:16:30.106Z,7.17
2019-06-20T16:18:56.995Z,7.30
2019-06-20T16:21:23.825Z,7.42
2019-06-20T16:23:50.719Z,7.30
2019-06-20T16:26:17.369Z,7.78
2019-06-20T16:28:44.162Z,8.00
2019-06-20T16:31:25.906Z,7.15
2019-06-20T16:33:39.648Z,7.75
2019-06-20T16:36:06.422Z,6.30
2019-06-20T16:38:33.311Z,6.35
2019-06-20T16:40:59.999Z,6.67
2019-06-20T16:43:26.801Z,6.33
2019-06-20T16:45:53.451Z,6.45
2019-06-20T16:48:20.261Z,6.83
2019-06-20T16:50:47.073Z,6.83
2019-06-20T16:53:13.819Z,7.25
2019-06-20T16:55:40.812Z,7.28
2019-06-20T16:58:07.940Z,7.10
2019-06-20T17:00:34.957Z,6.30
2019-06-20T17:03:01.833Z,6.20
2019-06-20T17:05:28.705Z,6.65
2019-06-20T17:07:55.467Z,7.10
2019-06-20T17:10:24.230Z,7.50
2019-06-20T17:12:51.122Z,7.58
2019-06-20T17:15:18.918Z,8.28
2019-06-20T17:17:45.812Z,7.40
2019-06-20T17:20:13.571Z,7.65
2019-06-20T17:22:42.278Z,7.15
2019-06-20T17:25:09.660Z,6.83
2019-06-20T17:27:36.427Z,6.70
2019-06-20T17:30:11.811Z,7.70
2019-06-20T17:32:38.942Z,8.03
2019-06-20T17:35:07.015Z,7.83
2019-06-20T17:37:34.087Z,8.28
2019-06-20T17:40:00.791Z,7.05
2019-06-20T17:42:27.700Z,6.33
2019-06-20T17:44:54.365Z,6.65
2019-06-20T17:47:21.289Z,5.33
2019-06-20T17:49:48.140Z,5.10
2019-06-20T17:52:15.019Z,5.12
2019-06-20T17:54:41.783Z,5.33
2019-06-20T17:57:08.555Z,4.80
2019-06-20T17:59:35.241Z,4.62
2019-06-20T18:02:02.063Z,5.65
2019-06-20T18:04:28.752Z,5.83
2019-06-20T18:06:55.449Z,5.95
2019-06-20T18:09:22.303Z,6.15
2019-06-20T18:11:49.085Z,6.45
2019-06-20T18:14:15.773Z,6.15
2019-06-20T18:16:42.633Z,5.83
2019-06-20T18:19:09.416Z,5.28
2019-06-20T18:21:36.343Z,6.15
2019-06-20T18:24:03.302Z,6.10
2019-06-20T18:26:30.010Z,7.25
2019-06-20T18:28:56.709Z,7.40
2019-06-20T18:31:23.423Z,7.83
2019-06-20T18:33:50.429Z,6.72
2019-06-20T18:36:17.326Z,6.70
2019-06-20T18:38:44.006Z,6.37
2019-06-20T18:41:10.673Z,6.15
2019-06-20T18:43:37.514Z,5.47
2019-06-20T18:46:04.306Z,19.25
2019-06-20T18:48:32.094Z,9.13
2019-06-20T18:50:59.056Z,6.87
2019-06-20T18:53:45.097Z,6.20
2019-06-20T18:56:11.868Z,5.37
2019-06-20T18:58:38.549Z,5.20
2019-06-20T19:01:05.399Z,4.87
2019-06-20T19:03:32.206Z,7.33
2019-06-20T19:05:58.999Z,5.17
2019-06-20T19:08:25.736Z,5.15
2019-06-20T19:10:52.536Z,5.00
2019-06-20T19:13:19.348Z,5.53
2019-06-20T19:15:46.146Z,5.17
2019-06-20T19:18:12.912Z,21.68
2019-06-20T19:20:39.887Z,8.95
2019-06-20T19:23:06.760Z,8.10
2019-06-20T19:25:33.662Z,8.30
2019-06-20T19:28:00.748Z,25.23
2019-06-20T19:30:38.842Z,13.78
2019-06-20T19:33:05.858Z,13.78
2019-06-20T19:35:32.648Z,14.87
2019-06-20T19:37:59.380Z,10.28
2019-06-20T19:40:31.925Z,8.18
2019-06-20T19:42:58.769Z,7.87
2019-06-20T19:45:25.677Z,6.00
2019-06-20T19:47:52.561Z,6.05
2019-06-20T19:50:19.956Z,6.97
2019-06-20T19:52:46.744Z,7.40
2019-06-20T19:55:15.150Z,6.97
2019-06-20T19:57:42.123Z,7.70
2019-06-20T20:00:10.937Z,7.15
2019-06-20T20:02:37.979Z,7.75
2019-06-20T20:05:18.534Z,7.95
2019-06-20T20:07:35.882Z,7.85
2019-06-20T20:10:05.660Z,8.13
2019-06-20T20:12:32.515Z,7.35
2019-06-20T20:14:59.504Z,7.42
2019-06-20T20:17:26.333Z,6.53
2019-06-20T20:19:53.097Z,6.78
2019-06-20T20:22:19.797Z,6.62
2019-06-20T20:24:46.491Z,7.15
2019-06-20T20:27:13.409Z,6.92
2019-06-20T20:29:40.225Z,7.05
2019-06-20T20:32:07.093Z,7.37
2019-06-20T20:34:33.818Z,6.83
2019-06-20T20:37:00.516Z,6.50
2019-06-20T20:39:27.184Z,6.22
2019-06-20T20:41:53.914Z,6.80
2019-06-20T20:44:20.566Z,7.00
2019-06-20T20:46:47.363Z,7.65
2019-06-20T20:49:14.089Z,7.20
2019-06-20T20:51:40.755Z,7.17
2019-06-20T20:54:07.534Z,7.20
2019-06-20T20:56:34.228Z,6.97
2019-06-20T20:59:01.196Z,7.50
2019-06-20T21:01:29.476Z,6.95
2019-06-20T21:03:59.084Z,6.85
2019-06-20T21:06:27.505Z,6.80
2019-06-20T21:08:54.250Z,7.15
2019-06-20T21:11:21.047Z,6.85
2019-06-20T21:13:47.722Z,7.72
2019-06-20T21:16:14.528Z,7.75
2019-06-20T21:18:41.300Z,6.95
2019-06-20T21:21:08.192Z,7.17
2019-06-20T21:23:35.034Z,7.50
2019-06-20T21:26:01.856Z,7.33
2019-06-20T21:28:28.617Z,8.23
2019-06-20T21:30:55.407Z,8.30
2019-06-20T21:33:22.152Z,8.38
2019-06-20T21:35:48.924Z,8.63
2019-06-20T21:38:15.699Z,12.50
2019-06-20T21:40:42.863Z,11.28
2019-06-20T21:43:09.737Z,12.23
2019-06-20T21:45:36.439Z,12.35
2019-06-20T21:48:03.729Z,12.05
2019-06-20T21:50:30.421Z,12.35
2019-06-20T21:52:57.092Z,12.73
2019-06-20T21:55:23.884Z,12.18
2019-06-20T21:57:50.655Z,12.10
2019-06-20T22:00:30.020Z,12.60
2019-06-20T22:02:56.715Z,11.40
2019-06-20T22:05:23.436Z,11.12
2019-06-20T22:07:50.230Z,10.35
2019-06-20T22:10:17.619Z,10.75
2019-06-20T22:12:44.399Z,10.00
2019-06-20T22:15:11.588Z,10.20
2019-06-20T22:17:38.373Z,10.35
2019-06-20T22:20:06.346Z,11.15
2019-06-20T22:22:33.241Z,10.20
2019-06-20T22:24:59.915Z,9.53
2019-06-20T22:27:26.681Z,8.18
2019-06-20T22:29:53.347Z,8.25
2019-06-20T22:32:20.298Z,7.80
2019-06-20T22:34:46.986Z,8.28
2019-06-20T22:37:13.863Z,8.15
2019-06-20T22:39:40.514Z,9.48
2019-06-20T22:42:07.366Z,9.58
2019-06-20T22:44:34.157Z,10.98
2019-06-20T22:47:00.955Z,11.70
2019-06-20T22:49:27.645Z,12.20
2019-06-20T22:51:54.306Z,11.45
2019-06-20T22:54:21.088Z,12.10
2019-06-20T22:56:47.970Z,12.03
2019-06-20T22:59:14.721Z,12.20
2019-06-20T23:01:43.426Z,11.85
2019-06-20T23:04:10.263Z,12.35
2019-06-20T23:06:37.043Z,12.60
2019-06-20T23:09:06.005Z,11.90
2019-06-20T23:11:32.700Z,11.88
2019-06-20T23:13:59.578Z,11.93
2019-06-20T23:16:26.236Z,11.97
2019-06-20T23:18:52.919Z,12.78
2019-06-20T23:21:19.586Z,11.88
2019-06-20T23:23:46.303Z,13.72
2019-06-20T23:26:13.667Z,13.25
2019-06-20T23:28:40.567Z,13.28
2019-06-20T23:31:07.658Z,12.75
2019-06-20T23:33:34.335Z,12.40
2019-06-20T23:36:01.106Z,11.78
2019-06-20T23:38:27.883Z,12.68
2019-06-20T23:40:54.560Z,13.13
2019-06-20T23:43:21.254Z,13.30
2019-06-20T23:45:47.952Z,13.15
2019-06-20T23:48:14.918Z,12.65
2019-06-20T23:50:41.669Z,11.35
2019-06-20T23:53:13.414Z,11.83
2019-06-20T23:55:40.076Z,11.38
2019-06-20T23:58:06.760Z,10.45
